San Antonio de Areco, Argentina
Current Conditions -  °F | °C
As of 8:00 PM on Tuesday 25 Nov 2014 (Local Time) from SADF Reporting Station
Clear Clear  
Wind Chill: 70°   Ceiling: Unl
Heat Index: 70°   Visibility: 6mi
Dew Point: 50°   Wind: 8mph
Humidity: 49%   Direction: 70°ENE
Pressure: 29.91"   Gusts: NA
Location:  34.25°S, 59.47°W
Report Text: SADF 252300Z 07007KT CAVOK 21/10 Q1013
Loading
Personal Weather Stations






























Interactive Weather Map New forecast layout! Learn more

10-Day Weather Forecast

Advertisements
Track Severe Weather on mobile